sensor_id;sensor_type;location;lat;lon;timestamp;temperature;humidity
37702;DHT22;23548;51.196;6.838;2023-04-25T00:02:20;7.00;99.90
37702;DHT22;23548;51.196;6.838;2023-04-25T00:04:47;7.10;99.90
37702;DHT22;23548;51.196;6.838;2023-04-25T00:07:15;7.20;99.90
37702;DHT22;23548;51.196;6.838;2023-04-25T00:09:42;7.30;99.90
37702;DHT22;23548;51.196;6.838;2023-04-25T00:12:08;7.30;99.90
37702;DHT22;23548;51.196;6.838;2023-04-25T00:14:34;7.40;99.90
37702;DHT22;23548;51.196;6.838;2023-04-25T00:17:01;7.50;99.90
37702;DHT22;23548;51.196;6.838;2023-04-25T00:19:26;7.60;99.90
37702;DHT22;23548;51.196;6.838;2023-04-25T00:21:55;7.70;99.90
37702;DHT22;23548;51.196;6.838;2023-04-25T00:24:21;7.70;99.90
37702;DHT22;23548;51.196;6.838;2023-04-25T00:26:46;7.80;99.90
37702;DHT22;23548;51.196;6.838;2023-04-25T00:29:13;7.80;99.90
37702;DHT22;23548;51.196;6.838;2023-04-25T00:31:38;7.80;99.90
37702;DHT22;23548;51.196;6.838;2023-04-25T00:34:05;7.80;99.90
37702;DHT22;23548;51.196;6.838;2023-04-25T00:36:31;7.90;99.90
37702;DHT22;23548;51.196;6.838;2023-04-25T00:38:57;7.80;99.90
37702;DHT22;23548;51.196;6.838;2023-04-25T00:41:25;7.90;99.90
37702;DHT22;23548;51.196;6.838;2023-04-25T00:43:52;7.90;99.90
37702;DHT22;23548;51.196;6.838;2023-04-25T00:46:19;7.90;99.90
37702;DHT22;23548;51.196;6.838;2023-04-25T00:48:45;7.90;99.90
37702;DHT22;23548;51.196;6.838;2023-04-25T00:51:15;7.90;99.90
37702;DHT22;23548;51.196;6.838;2023-04-25T00:53:41;7.90;99.90
37702;DHT22;23548;51.196;6.838;2023-04-25T00:56:08;7.90;99.90
37702;DHT22;23548;51.196;6.838;2023-04-25T00:58:34;8.00;99.90
37702;DHT22;23548;51.196;6.838;2023-04-25T01:01:01;7.90;99.90
37702;DHT22;23548;51.196;6.838;2023-04-25T01:03:27;7.90;99.90
37702;DHT22;23548;51.196;6.838;2023-04-25T01:05:54;7.90;99.90
37702;DHT22;23548;51.196;6.838;2023-04-25T01:08:21;7.90;99.90
37702;DHT22;23548;51.196;6.838;2023-04-25T01:10:48;7.90;99.90
37702;DHT22;23548;51.196;6.838;2023-04-25T01:13:14;7.90;99.90
37702;DHT22;23548;51.196;6.838;2023-04-25T01:15:40;7.90;99.90
37702;DHT22;23548;51.196;6.838;2023-04-25T01:18:06;7.90;99.90
37702;DHT22;23548;51.196;6.838;2023-04-25T01:20:33;7.90;99.90
37702;DHT22;23548;51.196;6.838;2023-04-25T01:23:00;7.80;99.90
37702;DHT22;23548;51.196;6.838;2023-04-25T01:25:26;7.80;99.90
37702;DHT22;23548;51.196;6.838;2023-04-25T01:27:52;7.80;99.90
37702;DHT22;23548;51.196;6.838;2023-04-25T01:30:18;7.90;99.90
37702;DHT22;23548;51.196;6.838;2023-04-25T01:32:44;7.90;99.90
37702;DHT22;23548;51.196;6.838;2023-04-25T01:35:11;7.80;99.90
37702;DHT22;23548;51.196;6.838;2023-04-25T01:37:41;7.80;99.90
37702;DHT22;23548;51.196;6.838;2023-04-25T01:40:09;7.70;99.90
37702;DHT22;23548;51.196;6.838;2023-04-25T01:42:39;7.50;99.90
37702;DHT22;23548;51.196;6.838;2023-04-25T01:45:06;7.40;99.90
37702;DHT22;23548;51.196;6.838;2023-04-25T01:47:32;7.40;99.90
37702;DHT22;23548;51.196;6.838;2023-04-25T01:50:02;7.40;99.90
37702;DHT22;23548;51.196;6.838;2023-04-25T01:52:36;7.40;99.90
37702;DHT22;23548;51.196;6.838;2023-04-25T01:55:02;7.30;99.90
37702;DHT22;23548;51.196;6.838;2023-04-25T01:57:28;7.30;99.90
37702;DHT22;23548;51.196;6.838;2023-04-25T01:59:59;7.40;99.90
37702;DHT22;23548;51.196;6.838;2023-04-25T02:02:26;7.40;99.90
37702;DHT22;23548;51.196;6.838;2023-04-25T02:04:52;7.50;99.90
37702;DHT22;23548;51.196;6.838;2023-04-25T02:07:18;7.50;99.90
37702;DHT22;23548;51.196;6.838;2023-04-25T02:09:43;7.50;99.90
37702;DHT22;23548;51.196;6.838;2023-04-25T02:12:10;7.60;99.90
37702;DHT22;23548;51.196;6.838;2023-04-25T02:14:36;7.50;99.90
37702;DHT22;23548;51.196;6.838;2023-04-25T02:17:02;7.50;99.90
37702;DHT22;23548;51.196;6.838;2023-04-25T02:19:28;7.50;99.90
37702;DHT22;23548;51.196;6.838;2023-04-25T02:21:54;7.50;99.90
37702;DHT22;23548;51.196;6.838;2023-04-25T02:24:20;7.50;99.90
37702;DHT22;23548;51.196;6.838;2023-04-25T02:26:46;7.50;99.90
37702;DHT22;23548;51.196;6.838;2023-04-25T02:29:12;7.50;99.90
37702;DHT22;23548;51.196;6.838;2023-04-25T02:31:38;7.50;99.90
37702;DHT22;23548;51.196;6.838;2023-04-25T02:34:04;7.50;99.90
37702;DHT22;23548;51.196;6.838;2023-04-25T02:36:30;7.50;99.90
37702;DHT22;23548;51.196;6.838;2023-04-25T02:39:00;7.50;99.90
37702;DHT22;23548;51.196;6.838;2023-04-25T02:41:26;7.50;99.90
37702;DHT22;23548;51.196;6.838;2023-04-25T02:43:52;7.40;99.90
37702;DHT22;23548;51.196;6.838;2023-04-25T02:46:18;7.40;99.90
37702;DHT22;23548;51.196;6.838;2023-04-25T02:48:44;7.30;99.90
37702;DHT22;23548;51.196;6.838;2023-04-25T02:51:09;7.30;99.90
37702;DHT22;23548;51.196;6.838;2023-04-25T02:53:35;7.30;99.90
37702;DHT22;23548;51.196;6.838;2023-04-25T02:56:01;7.30;99.90
37702;DHT22;23548;51.196;6.838;2023-04-25T02:58:27;7.30;99.90
37702;DHT22;23548;51.196;6.838;2023-04-25T03:00:53;7.30;99.90
37702;DHT22;23548;51.196;6.838;2023-04-25T03:03:20;7.40;99.90
37702;DHT22;23548;51.196;6.838;2023-04-25T03:05:49;7.30;99.90
37702;DHT22;23548;51.196;6.838;2023-04-25T03:08:16;7.30;99.90
37702;DHT22;23548;51.196;6.838;2023-04-25T03:10:42;7.40;99.90
37702;DHT22;23548;51.196;6.838;2023-04-25T03:13:08;7.40;99.90
37702;DHT22;23548;51.196;6.838;2023-04-25T03:15:34;7.40;99.90
37702;DHT22;23548;51.196;6.838;2023-04-25T03:18:01;7.40;99.90
37702;DHT22;23548;51.196;6.838;2023-04-25T03:20:27;7.40;99.90
37702;DHT22;23548;51.196;6.838;2023-04-25T03:22:53;7.40;99.90
37702;DHT22;23548;51.196;6.838;2023-04-25T03:25:19;7.30;99.90
37702;DHT22;23548;51.196;6.838;2023-04-25T03:27:44;7.30;99.90
37702;DHT22;23548;51.196;6.838;2023-04-25T03:30:10;7.30;99.90
37702;DHT22;23548;51.196;6.838;2023-04-25T03:32:36;7.30;99.90
37702;DHT22;23548;51.196;6.838;2023-04-25T03:35:02;7.30;99.90
37702;DHT22;23548;51.196;6.838;2023-04-25T03:37:29;7.30;99.90
37702;DHT22;23548;51.196;6.838;2023-04-25T03:39:55;7.30;99.90
37702;DHT22;23548;51.196;6.838;2023-04-25T03:42:21;7.30;99.90
37702;DHT22;23548;51.196;6.838;2023-04-25T03:44:49;7.20;99.90
37702;DHT22;23548;51.196;6.838;2023-04-25T03:47:15;7.20;99.90
37702;DHT22;23548;51.196;6.838;2023-04-25T03:49:41;7.20;99.90
37702;DHT22;23548;51.196;6.838;2023-04-25T03:52:07;7.20;99.90
37702;DHT22;23548;51.196;6.838;2023-04-25T03:54:33;7.20;99.90
37702;DHT22;23548;51.196;6.838;2023-04-25T03:56:59;7.20;99.90
37702;DHT22;23548;51.196;6.838;2023-04-25T03:59:24;7.20;99.90
37702;DHT22;23548;51.196;6.838;2023-04-25T04:01:51;7.20;99.90
37702;DHT22;23548;51.196;6.838;2023-04-25T04:04:17;7.10;99.90
37702;DHT22;23548;51.196;6.838;2023-04-25T04:06:43;7.10;99.90
37702;DHT22;23548;51.196;6.838;2023-04-25T04:09:09;7.00;99.90
37702;DHT22;23548;51.196;6.838;2023-04-25T04:11:37;7.00;99.90
37702;DHT22;23548;51.196;6.838;2023-04-25T04:14:05;7.00;99.90
37702;DHT22;23548;51.196;6.838;2023-04-25T04:16:31;7.00;99.90
37702;DHT22;23548;51.196;6.838;2023-04-25T04:18:57;6.90;99.90
37702;DHT22;23548;51.196;6.838;2023-04-25T04:21:23;6.90;99.90
37702;DHT22;23548;51.196;6.838;2023-04-25T04:23:48;6.90;99.90
37702;DHT22;23548;51.196;6.838;2023-04-25T04:26:14;6.90;99.90
37702;DHT22;23548;51.196;6.838;2023-04-25T04:28:44;6.80;99.90
37702;DHT22;23548;51.196;6.838;2023-04-25T04:31:10;6.80;99.90
37702;DHT22;23548;51.196;6.838;2023-04-25T04:33:36;6.80;99.90
37702;DHT22;23548;51.196;6.838;2023-04-25T04:36:03;6.90;99.90
37702;DHT22;23548;51.196;6.838;2023-04-25T04:38:29;6.90;99.90
37702;DHT22;23548;51.196;6.838;2023-04-25T04:40:55;6.90;99.90
37702;DHT22;23548;51.196;6.838;2023-04-25T04:43:21;6.90;99.90
37702;DHT22;23548;51.196;6.838;2023-04-25T04:45:48;6.90;99.90
37702;DHT22;23548;51.196;6.838;2023-04-25T04:48:15;6.90;99.90
37702;DHT22;23548;51.196;6.838;2023-04-25T04:50:43;6.90;99.90
37702;DHT22;23548;51.196;6.838;2023-04-25T04:53:11;6.90;99.90
37702;DHT22;23548;51.196;6.838;2023-04-25T04:55:37;6.90;99.90
37702;DHT22;23548;51.196;6.838;2023-04-25T04:58:03;6.90;99.90
37702;DHT22;23548;51.196;6.838;2023-04-25T05:00:28;6.90;99.90
37702;DHT22;23548;51.196;6.838;2023-04-25T05:02:55;6.90;99.90
37702;DHT22;23548;51.196;6.838;2023-04-25T05:05:21;6.90;99.90
37702;DHT22;23548;51.196;6.838;2023-04-25T05:07:47;7.00;99.90
37702;DHT22;23548;51.196;6.838;2023-04-25T05:10:13;7.00;99.90
37702;DHT22;23548;51.196;6.838;2023-04-25T05:12:39;7.10;99.90
37702;DHT22;23548;51.196;6.838;2023-04-25T05:15:05;7.10;99.90
37702;DHT22;23548;51.196;6.838;2023-04-25T05:17:31;7.20;99.90
37702;DHT22;23548;51.196;6.838;2023-04-25T05:19:58;7.20;99.90
37702;DHT22;23548;51.196;6.838;2023-04-25T05:22:23;7.20;99.90
37702;DHT22;23548;51.196;6.838;2023-04-25T05:24:49;7.30;99.90
37702;DHT22;23548;51.196;6.838;2023-04-25T05:27:17;7.30;99.90
37702;DHT22;23548;51.196;6.838;2023-04-25T05:29:43;7.20;99.90
37702;DHT22;23548;51.196;6.838;2023-04-25T05:32:09;7.20;99.90
37702;DHT22;23548;51.196;6.838;2023-04-25T05:34:35;7.10;99.90
37702;DHT22;23548;51.196;6.838;2023-04-25T05:37:01;7.00;99.90
37702;DHT22;23548;51.196;6.838;2023-04-25T05:39:27;7.00;99.90
37702;DHT22;23548;51.196;6.838;2023-04-25T05:41:53;7.10;99.90
37702;DHT22;23548;51.196;6.838;2023-04-25T05:44:19;7.10;99.90
37702;DHT22;23548;51.196;6.838;2023-04-25T05:46:44;7.10;99.90
37702;DHT22;23548;51.196;6.838;2023-04-25T05:49:10;7.20;99.90
37702;DHT22;23548;51.196;6.838;2023-04-25T05:51:36;7.30;99.90
37702;DHT22;23548;51.196;6.838;2023-04-25T05:54:02;7.40;99.90
37702;DHT22;23548;51.196;6.838;2023-04-25T05:56:28;7.50;99.90
37702;DHT22;23548;51.196;6.838;2023-04-25T05:58:53;7.50;99.90
37702;DHT22;23548;51.196;6.838;2023-04-25T06:01:22;7.70;99.90
37702;DHT22;23548;51.196;6.838;2023-04-25T06:03:48;8.00;99.90
37702;DHT22;23548;51.196;6.838;2023-04-25T06:06:14;8.20;99.90
37702;DHT22;23548;51.196;6.838;2023-04-25T06:08:40;8.30;99.90
37702;DHT22;23548;51.196;6.838;2023-04-25T06:11:06;8.10;99.90
37702;DHT22;23548;51.196;6.838;2023-04-25T06:13:32;8.10;99.90
37702;DHT22;23548;51.196;6.838;2023-04-25T06:15:58;8.00;99.90
37702;DHT22;23548;51.196;6.838;2023-04-25T06:18:24;8.10;99.90
37702;DHT22;23548;51.196;6.838;2023-04-25T06:20:50;8.20;99.90
37702;DHT22;23548;51.196;6.838;2023-04-25T06:23:15;8.20;99.90
37702;DHT22;23548;51.196;6.838;2023-04-25T06:25:44;8.30;99.90
37702;DHT22;23548;51.196;6.838;2023-04-25T06:28:12;8.40;99.90
37702;DHT22;23548;51.196;6.838;2023-04-25T06:30:38;8.50;99.90
37702;DHT22;23548;51.196;6.838;2023-04-25T06:33:04;8.60;99.90
37702;DHT22;23548;51.196;6.838;2023-04-25T06:35:31;8.90;99.90
37702;DHT22;23548;51.196;6.838;2023-04-25T06:37:56;8.90;99.90
37702;DHT22;23548;51.196;6.838;2023-04-25T06:40:22;8.70;99.90
37702;DHT22;23548;51.196;6.838;2023-04-25T06:42:48;8.60;99.90
37702;DHT22;23548;51.196;6.838;2023-04-25T06:45:14;8.60;99.90
37702;DHT22;23548;51.196;6.838;2023-04-25T06:47:40;8.80;99.90
37702;DHT22;23548;51.196;6.838;2023-04-25T06:50:06;9.00;99.90
37702;DHT22;23548;51.196;6.838;2023-04-25T06:52:31;8.60;99.90
37702;DHT22;23548;51.196;6.838;2023-04-25T06:54:58;8.70;99.90
37702;DHT22;23548;51.196;6.838;2023-04-25T06:57:24;8.60;99.90
37702;DHT22;23548;51.196;6.838;2023-04-25T06:59:49;8.70;99.90
37702;DHT22;23548;51.196;6.838;2023-04-25T07:02:15;9.00;99.90
37702;DHT22;23548;51.196;6.838;2023-04-25T07:04:41;9.00;99.90
37702;DHT22;23548;51.196;6.838;2023-04-25T07:07:06;9.20;99.90
37702;DHT22;23548;51.196;6.838;2023-04-25T07:09:32;9.50;99.90
37702;DHT22;23548;51.196;6.838;2023-04-25T07:11:59;9.40;99.90
37702;DHT22;23548;51.196;6.838;2023-04-25T07:14:27;9.20;99.90
37702;DHT22;23548;51.196;6.838;2023-04-25T07:16:53;9.00;99.90
37702;DHT22;23548;51.196;6.838;2023-04-25T07:19:18;9.00;99.90
37702;DHT22;23548;51.196;6.838;2023-04-25T07:21:44;8.90;99.90
37702;DHT22;23548;51.196;6.838;2023-04-25T07:24:10;9.20;99.90
37702;DHT22;23548;51.196;6.838;2023-04-25T07:26:36;9.40;99.90
37702;DHT22;23548;51.196;6.838;2023-04-25T07:29:01;9.70;99.90
37702;DHT22;23548;51.196;6.838;2023-04-25T07:31:27;10.00;99.90
37702;DHT22;23548;51.196;6.838;2023-04-25T07:33:53;10.30;99.90
37702;DHT22;23548;51.196;6.838;2023-04-25T07:36:19;10.30;99.90
37702;DHT22;23548;51.196;6.838;2023-04-25T07:38:45;9.90;99.90
37702;DHT22;23548;51.196;6.838;2023-04-25T07:41:10;9.60;99.90
37702;DHT22;23548;51.196;6.838;2023-04-25T07:43:36;9.50;99.90
37702;DHT22;23548;51.196;6.838;2023-04-25T07:46:02;9.50;99.90
37702;DHT22;23548;51.196;6.838;2023-04-25T07:48:28;9.50;99.90
37702;DHT22;23548;51.196;6.838;2023-04-25T07:50:53;9.50;99.90
37702;DHT22;23548;51.196;6.838;2023-04-25T07:53:22;9.40;99.90
37702;DHT22;23548;51.196;6.838;2023-04-25T07:55:48;9.40;99.90
37702;DHT22;23548;51.196;6.838;2023-04-25T07:58:14;9.60;99.90
37702;DHT22;23548;51.196;6.838;2023-04-25T08:00:40;9.30;99.90
37702;DHT22;23548;51.196;6.838;2023-04-25T08:03:07;9.20;99.90
37702;DHT22;23548;51.196;6.838;2023-04-25T08:05:33;9.20;99.90
37702;DHT22;23548;51.196;6.838;2023-04-25T08:07:59;9.20;99.90
37702;DHT22;23548;51.196;6.838;2023-04-25T08:10:24;9.20;99.90
37702;DHT22;23548;51.196;6.838;2023-04-25T08:12:50;9.30;99.90
37702;DHT22;23548;51.196;6.838;2023-04-25T08:15:16;9.20;99.90
37702;DHT22;23548;51.196;6.838;2023-04-25T08:17:41;9.20;99.90
37702;DHT22;23548;51.196;6.838;2023-04-25T08:20:09;9.30;99.90
37702;DHT22;23548;51.196;6.838;2023-04-25T08:22:36;9.50;99.90
37702;DHT22;23548;51.196;6.838;2023-04-25T08:25:01;9.70;99.90
37702;DHT22;23548;51.196;6.838;2023-04-25T08:27:27;10.30;99.90
37702;DHT22;23548;51.196;6.838;2023-04-25T08:29:53;10.50;99.90
37702;DHT22;23548;51.196;6.838;2023-04-25T08:32:19;10.40;99.90
37702;DHT22;23548;51.196;6.838;2023-04-25T08:34:46;10.20;99.90
37702;DHT22;23548;51.196;6.838;2023-04-25T08:37:12;10.00;99.90
37702;DHT22;23548;51.196;6.838;2023-04-25T08:39:38;10.00;99.90
37702;DHT22;23548;51.196;6.838;2023-04-25T08:42:06;10.00;99.90
37702;DHT22;23548;51.196;6.838;2023-04-25T08:44:35;9.90;99.90
37702;DHT22;23548;51.196;6.838;2023-04-25T08:47:05;9.70;99.90
37702;DHT22;23548;51.196;6.838;2023-04-25T08:49:34;9.70;99.90
37702;DHT22;23548;51.196;6.838;2023-04-25T08:52:01;9.80;99.90
37702;DHT22;23548;51.196;6.838;2023-04-25T08:54:31;10.10;99.90
37702;DHT22;23548;51.196;6.838;2023-04-25T08:56:58;10.20;99.90
37702;DHT22;23548;51.196;6.838;2023-04-25T08:59:27;10.30;99.90
37702;DHT22;23548;51.196;6.838;2023-04-25T09:01:53;10.30;99.90
37702;DHT22;23548;51.196;6.838;2023-04-25T09:04:19;10.60;99.90
37702;DHT22;23548;51.196;6.838;2023-04-25T09:06:46;10.60;99.90
37702;DHT22;23548;51.196;6.838;2023-04-25T09:09:12;10.80;99.90
37702;DHT22;23548;51.196;6.838;2023-04-25T09:11:38;11.00;99.90
37702;DHT22;23548;51.196;6.838;2023-04-25T09:14:15;11.40;99.90
37702;DHT22;23548;51.196;6.838;2023-04-25T09:16:57;11.20;99.90
37702;DHT22;23548;51.196;6.838;2023-04-25T09:19:36;10.90;99.90
37702;DHT22;23548;51.196;6.838;2023-04-25T09:22:04;11.10;99.90
37702;DHT22;23548;51.196;6.838;2023-04-25T09:24:39;11.30;99.90
37702;DHT22;23548;51.196;6.838;2023-04-25T09:27:06;11.30;99.90
37702;DHT22;23548;51.196;6.838;2023-04-25T09:29:33;11.30;99.90
37702;DHT22;23548;51.196;6.838;2023-04-25T09:32:19;11.30;99.90
37702;DHT22;23548;51.196;6.838;2023-04-25T09:34:56;11.00;99.90
37702;DHT22;23548;51.196;6.838;2023-04-25T09:39:58;11.00;99.90
37702;DHT22;23548;51.196;6.838;2023-04-25T09:42:31;10.60;99.90
37702;DHT22;23548;51.196;6.838;2023-04-25T09:44:58;10.40;99.90
37702;DHT22;23548;51.196;6.838;2023-04-25T09:47:25;10.30;99.90
37702;DHT22;23548;51.196;6.838;2023-04-25T09:49:53;10.60;99.90
37702;DHT22;23548;51.196;6.838;2023-04-25T09:52:21;11.00;99.90
37702;DHT22;23548;51.196;6.838;2023-04-25T09:54:48;11.40;99.90
37702;DHT22;23548;51.196;6.838;2023-04-25T09:57:17;11.40;99.90
37702;DHT22;23548;51.196;6.838;2023-04-25T09:59:50;11.30;99.90
37702;DHT22;23548;51.196;6.838;2023-04-25T10:02:24;11.40;99.90
37702;DHT22;23548;51.196;6.838;2023-04-25T10:04:52;11.20;99.90
37702;DHT22;23548;51.196;6.838;2023-04-25T10:07:22;11.20;97.10
37702;DHT22;23548;51.196;6.838;2023-04-25T10:09:59;11.40;97.40
37702;DHT22;23548;51.196;6.838;2023-04-25T10:12:29;11.80;98.60
37702;DHT22;23548;51.196;6.838;2023-04-25T10:14:58;12.20;99.50
37702;DHT22;23548;51.196;6.838;2023-04-25T10:17:24;12.60;97.90
37702;DHT22;23548;51.196;6.838;2023-04-25T10:19:53;12.40;96.10
37702;DHT22;23548;51.196;6.838;2023-04-25T10:22:38;12.10;96.90
37702;DHT22;23548;51.196;6.838;2023-04-25T10:25:06;12.20;97.10
37702;DHT22;23548;51.196;6.838;2023-04-25T10:27:34;12.20;97.20
37702;DHT22;23548;51.196;6.838;2023-04-25T10:30:13;12.20;96.90
37702;DHT22;23548;51.196;6.838;2023-04-25T10:32:41;12.10;97.60
37702;DHT22;23548;51.196;6.838;2023-04-25T10:35:18;12.10;97.70
37702;DHT22;23548;51.196;6.838;2023-04-25T10:38:09;11.70;97.30
37702;DHT22;23548;51.196;6.838;2023-04-25T10:40:36;11.20;97.50
37702;DHT22;23548;51.196;6.838;2023-04-25T10:43:36;11.20;98.00
37702;DHT22;23548;51.196;6.838;2023-04-25T10:46:19;11.40;97.70
37702;DHT22;23548;51.196;6.838;2023-04-25T10:48:55;11.40;96.80
37702;DHT22;23548;51.196;6.838;2023-04-25T10:51:27;11.80;97.10
37702;DHT22;23548;51.196;6.838;2023-04-25T10:54:05;11.90;96.20
37702;DHT22;23548;51.196;6.838;2023-04-25T10:56:37;12.20;95.40
37702;DHT22;23548;51.196;6.838;2023-04-25T10:59:10;12.60;94.90
37702;DHT22;23548;51.196;6.838;2023-04-25T11:04:03;12.20;90.80
37702;DHT22;23548;51.196;6.838;2023-04-25T11:09:01;12.00;90.50
37702;DHT22;23548;51.196;6.838;2023-04-25T11:11:28;12.30;90.70
37702;DHT22;23548;51.196;6.838;2023-04-25T11:13:54;12.70;90.60
37702;DHT22;23548;51.196;6.838;2023-04-25T11:16:24;13.30;89.60
37702;DHT22;23548;51.196;6.838;2023-04-25T11:18:50;13.40;84.90
37702;DHT22;23548;51.196;6.838;2023-04-25T11:21:16;13.20;88.60
37702;DHT22;23548;51.196;6.838;2023-04-25T11:23:45;13.00;88.10
37702;DHT22;23548;51.196;6.838;2023-04-25T11:26:12;13.00;89.60
37702;DHT22;23548;51.196;6.838;2023-04-25T11:28:38;13.30;87.90
37702;DHT22;23548;51.196;6.838;2023-04-25T11:31:04;13.00;84.10
37702;DHT22;23548;51.196;6.838;2023-04-25T11:33:30;12.70;84.30
37702;DHT22;23548;51.196;6.838;2023-04-25T11:35:56;12.20;82.30
37702;DHT22;23548;51.196;6.838;2023-04-25T11:38:22;12.20;84.60
37702;DHT22;23548;51.196;6.838;2023-04-25T11:40:54;12.00;86.90
37702;DHT22;23548;51.196;6.838;2023-04-25T11:43:21;12.10;88.60
37702;DHT22;23548;51.196;6.838;2023-04-25T11:45:49;12.30;90.20
37702;DHT22;23548;51.196;6.838;2023-04-25T11:48:16;12.50;88.30
37702;DHT22;23548;51.196;6.838;2023-04-25T11:50:42;12.60;90.20
37702;DHT22;23548;51.196;6.838;2023-04-25T11:53:08;12.40;89.60
37702;DHT22;23548;51.196;6.838;2023-04-25T11:55:34;12.50;90.00
37702;DHT22;23548;51.196;6.838;2023-04-25T11:58:00;12.60;90.90
37702;DHT22;23548;51.196;6.838;2023-04-25T12:00:28;12.70;91.10
37702;DHT22;23548;51.196;6.838;2023-04-25T12:02:56;12.80;90.80
37702;DHT22;23548;51.196;6.838;2023-04-25T12:05:28;13.10;90.00
37702;DHT22;23548;51.196;6.838;2023-04-25T12:07:55;13.50;86.50
37702;DHT22;23548;51.196;6.838;2023-04-25T12:10:21;13.60;87.20
37702;DHT22;23548;51.196;6.838;2023-04-25T12:12:48;13.70;87.30
37702;DHT22;23548;51.196;6.838;2023-04-25T12:17:49;13.60;88.50
37702;DHT22;23548;51.196;6.838;2023-04-25T12:20:20;13.30;89.90
37702;DHT22;23548;51.196;6.838;2023-04-25T12:22:49;12.60;91.20
37702;DHT22;23548;51.196;6.838;2023-04-25T12:25:35;12.10;91.00
37702;DHT22;23548;51.196;6.838;2023-04-25T12:28:11;11.80;91.40
37702;DHT22;23548;51.196;6.838;2023-04-25T12:33:24;11.50;93.10
37702;DHT22;23548;51.196;6.838;2023-04-25T12:35:50;11.30;96.80
37702;DHT22;23548;51.196;6.838;2023-04-25T12:38:27;11.10;99.50
37702;DHT22;23548;51.196;6.838;2023-04-25T12:40:53;10.60;99.90
37702;DHT22;23548;51.196;6.838;2023-04-25T12:43:19;10.00;99.90
37702;DHT22;23548;51.196;6.838;2023-04-25T12:45:51;9.90;99.90
37702;DHT22;23548;51.196;6.838;2023-04-25T12:48:17;9.90;99.90
37702;DHT22;23548;51.196;6.838;2023-04-25T12:50:44;9.90;99.90
37702;DHT22;23548;51.196;6.838;2023-04-25T12:53:10;9.90;99.90
37702;DHT22;23548;51.196;6.838;2023-04-25T12:55:37;10.40;99.90
37702;DHT22;23548;51.196;6.838;2023-04-25T12:58:02;10.70;99.90
37702;DHT22;23548;51.196;6.838;2023-04-25T13:00:29;11.20;99.90
37702;DHT22;23548;51.196;6.838;2023-04-25T13:02:55;11.40;99.90
37702;DHT22;23548;51.196;6.838;2023-04-25T13:05:21;11.60;99.90
37702;DHT22;23548;51.196;6.838;2023-04-25T13:07:46;12.10;99.90
37702;DHT22;23548;51.196;6.838;2023-04-25T13:10:12;12.50;99.90
37702;DHT22;23548;51.196;6.838;2023-04-25T13:12:38;13.00;99.90
37702;DHT22;23548;51.196;6.838;2023-04-25T13:15:04;13.30;99.90
37702;DHT22;23548;51.196;6.838;2023-04-25T13:17:30;13.50;99.90
37702;DHT22;23548;51.196;6.838;2023-04-25T13:19:56;13.50;99.20
37702;DHT22;23548;51.196;6.838;2023-04-25T13:22:21;13.20;99.20
37702;DHT22;23548;51.196;6.838;2023-04-25T13:24:47;12.70;99.90
37702;DHT22;23548;51.196;6.838;2023-04-25T13:27:13;12.00;99.90
37702;DHT22;23548;51.196;6.838;2023-04-25T13:29:39;11.70;99.90
37702;DHT22;23548;51.196;6.838;2023-04-25T13:32:06;11.70;99.90
37702;DHT22;23548;51.196;6.838;2023-04-25T13:34:32;11.90;99.90
37702;DHT22;23548;51.196;6.838;2023-04-25T13:36:58;11.90;99.80
37702;DHT22;23548;51.196;6.838;2023-04-25T13:39:24;11.90;99.10
37702;DHT22;23548;51.196;6.838;2023-04-25T13:41:50;12.10;99.30
37702;DHT22;23548;51.196;6.838;2023-04-25T13:44:16;12.40;98.40
37702;DHT22;23548;51.196;6.838;2023-04-25T13:46:42;12.60;98.20
37702;DHT22;23548;51.196;6.838;2023-04-25T13:49:07;12.80;98.10
37702;DHT22;23548;51.196;6.838;2023-04-25T13:51:33;13.20;97.80
37702;DHT22;23548;51.196;6.838;2023-04-25T13:53:59;13.00;97.70
37702;DHT22;23548;51.196;6.838;2023-04-25T13:56:25;12.90;95.80
37702;DHT22;23548;51.196;6.838;2023-04-25T13:58:51;12.90;95.20
37702;DHT22;23548;51.196;6.838;2023-04-25T14:01:17;13.00;94.20
37702;DHT22;23548;51.196;6.838;2023-04-25T14:03:44;13.20;92.70
37702;DHT22;23548;51.196;6.838;2023-04-25T14:06:10;13.00;92.30
37702;DHT22;23548;51.196;6.838;2023-04-25T14:08:38;13.10;92.00
37702;DHT22;23548;51.196;6.838;2023-04-25T14:11:04;13.30;89.20
37702;DHT22;23548;51.196;6.838;2023-04-25T14:13:30;14.20;88.60
37702;DHT22;23548;51.196;6.838;2023-04-25T14:15:55;16.00;83.80
37702;DHT22;23548;51.196;6.838;2023-04-25T14:18:21;15.90;81.40
37702;DHT22;23548;51.196;6.838;2023-04-25T14:20:48;15.60;83.20
37702;DHT22;23548;51.196;6.838;2023-04-25T14:23:13;15.60;84.20
37702;DHT22;23548;51.196;6.838;2023-04-25T14:25:39;16.10;82.00
37702;DHT22;23548;51.196;6.838;2023-04-25T14:28:07;16.90;80.50
37702;DHT22;23548;51.196;6.838;2023-04-25T14:30:33;16.80;79.20
37702;DHT22;23548;51.196;6.838;2023-04-25T14:32:58;16.60;79.90
37702;DHT22;23548;51.196;6.838;2023-04-25T14:35:25;15.70;82.30
37702;DHT22;23548;51.196;6.838;2023-04-25T14:37:50;14.20;86.30
37702;DHT22;23548;51.196;6.838;2023-04-25T14:40:17;13.30;89.40
37702;DHT22;23548;51.196;6.838;2023-04-25T14:42:43;12.80;90.80
37702;DHT22;23548;51.196;6.838;2023-04-25T14:45:09;12.40;91.40
37702;DHT22;23548;51.196;6.838;2023-04-25T14:47:38;12.10;92.30
37702;DHT22;23548;51.196;6.838;2023-04-25T14:50:05;12.10;92.70
37702;DHT22;23548;51.196;6.838;2023-04-25T14:52:31;12.30;92.40
37702;DHT22;23548;51.196;6.838;2023-04-25T14:54:56;12.40;92.40
37702;DHT22;23548;51.196;6.838;2023-04-25T14:57:22;12.60;92.80
37702;DHT22;23548;51.196;6.838;2023-04-25T14:59:48;13.30;92.70
37702;DHT22;23548;51.196;6.838;2023-04-25T15:02:14;16.00;91.00
37702;DHT22;23548;51.196;6.838;2023-04-25T15:04:39;18.10;84.90
37702;DHT22;23548;51.196;6.838;2023-04-25T15:07:05;18.90;79.40
37702;DHT22;23548;51.196;6.838;2023-04-25T15:09:31;19.80;73.70
37702;DHT22;23548;51.196;6.838;2023-04-25T15:11:58;20.10;72.40
37702;DHT22;23548;51.196;6.838;2023-04-25T15:14:24;18.90;69.80
37702;DHT22;23548;51.196;6.838;2023-04-25T15:16:49;17.00;72.80
37702;DHT22;23548;51.196;6.838;2023-04-25T15:19:15;15.30;77.90
37702;DHT22;23548;51.196;6.838;2023-04-25T15:21:41;14.10;79.40
37702;DHT22;23548;51.196;6.838;2023-04-25T15:24:07;13.20;78.10
37702;DHT22;23548;51.196;6.838;2023-04-25T15:26:33;12.40;78.10
37702;DHT22;23548;51.196;6.838;2023-04-25T15:28:59;12.10;80.70
37702;DHT22;23548;51.196;6.838;2023-04-25T15:31:25;11.90;81.40
37702;DHT22;23548;51.196;6.838;2023-04-25T15:33:50;11.60;82.30
37702;DHT22;23548;51.196;6.838;2023-04-25T15:36:16;11.80;82.40
37702;DHT22;23548;51.196;6.838;2023-04-25T15:38:44;11.80;82.50
37702;DHT22;23548;51.196;6.838;2023-04-25T15:41:09;12.10;82.10
37702;DHT22;23548;51.196;6.838;2023-04-25T15:43:35;12.20;82.10
37702;DHT22;23548;51.196;6.838;2023-04-25T15:46:03;12.30;82.80
37702;DHT22;23548;51.196;6.838;2023-04-25T15:48:30;12.50;86.90
37702;DHT22;23548;51.196;6.838;2023-04-25T15:50:57;14.90;83.50
37702;DHT22;23548;51.196;6.838;2023-04-25T15:53:23;16.20;78.60